createdAt,value
2023-05-19T00:00:48.543Z,92.06
2023-05-19T00:03:54.584Z,92.47
2023-05-19T00:06:59.840Z,92.30
2023-05-19T00:10:02.606Z,91.87
2023-05-19T00:13:05.285Z,91.93
2023-05-19T00:16:08.314Z,91.82
2023-05-19T00:19:12.778Z,91.56
2023-05-19T00:22:15.620Z,91.39
2023-05-19T00:25:18.321Z,92.27
2023-05-19T00:28:20.639Z,92.39
2023-05-19T00:31:23.359Z,92.20
2023-05-19T00:34:26.036Z,91.62
2023-05-19T00:37:28.644Z,92.28
2023-05-19T00:40:32.354Z,91.89
2023-05-19T00:43:35.420Z,91.86
2023-05-19T00:46:38.346Z,91.89
2023-05-19T00:49:41.360Z,92.46
2023-05-19T00:52:44.068Z,92.59
2023-05-19T00:55:48.301Z,92.57
2023-05-19T00:58:55.214Z,92.45
2023-05-19T01:01:58.663Z,92.36
2023-05-19T01:05:02.400Z,92.82
2023-05-19T01:08:06.196Z,93.08
2023-05-19T01:11:08.721Z,93.53
2023-05-19T01:14:11.457Z,93.72
2023-05-19T01:17:29.774Z,93.24
2023-05-19T01:20:39.371Z,93.14
2023-05-19T01:23:57.227Z,93.04
2023-05-19T01:27:19.247Z,92.60
2023-05-19T01:30:32.671Z,92.81
2023-05-19T01:33:36.469Z,92.60
2023-05-19T01:36:41.405Z,92.84
2023-05-19T01:39:45.292Z,92.54
2023-05-19T01:42:49.594Z,92.76
2023-05-19T01:45:52.891Z,92.83
2023-05-19T01:48:57.501Z,92.96
2023-05-19T01:52:00.332Z,93.12
2023-05-19T01:55:02.956Z,93.55
2023-05-19T01:58:20.805Z,92.96
2023-05-19T02:01:36.044Z,92.84
2023-05-19T02:04:45.255Z,92.83
2023-05-19T02:07:58.274Z,93.14
2023-05-19T02:11:09.362Z,93.04
2023-05-19T02:14:21.534Z,93.06
2023-05-19T02:17:27.679Z,93.44
2023-05-19T02:20:31.588Z,92.96
2023-05-19T02:23:34.470Z,93.04
2023-05-19T02:26:36.814Z,93.03
2023-05-19T02:29:39.912Z,92.41
2023-05-19T02:32:42.619Z,92.83
2023-05-19T02:35:45.220Z,93.03
2023-05-19T02:38:47.600Z,92.97
2023-05-19T02:41:51.041Z,92.34
2023-05-19T02:44:55.103Z,93.19
2023-05-19T02:47:57.701Z,92.88
2023-05-19T02:51:01.313Z,92.25
2023-05-19T02:54:04.289Z,92.61
2023-05-19T02:57:07.305Z,93.24
2023-05-19T03:00:10.399Z,92.96
2023-05-19T03:03:14.057Z,93.47
2023-05-19T03:06:18.443Z,93.14
2023-05-19T03:09:21.116Z,93.27
2023-05-19T03:12:23.695Z,93.58
2023-05-19T03:15:26.062Z,93.55
2023-05-19T03:18:28.520Z,93.71
2023-05-19T03:21:32.255Z,93.78
2023-05-19T03:24:34.871Z,92.60
2023-05-19T03:27:38.447Z,92.58
2023-05-19T03:30:41.762Z,93.25
2023-05-19T03:33:49.130Z,93.06
2023-05-19T03:36:51.443Z,92.95
2023-05-19T03:39:54.083Z,93.37
2023-05-19T03:42:56.899Z,93.27
2023-05-19T03:45:59.724Z,93.71
2023-05-19T03:49:20.815Z,92.80
2023-05-19T03:52:45.746Z,93.25
2023-05-19T03:56:00.785Z,93.19
2023-05-19T03:59:06.453Z,93.36
2023-05-19T04:02:08.892Z,91.56
2023-05-19T04:05:11.662Z,92.27
2023-05-19T04:08:13.978Z,91.56
2023-05-19T04:11:16.856Z,91.36
2023-05-19T04:14:20.275Z,92.31
2023-05-19T04:17:26.358Z,92.62
2023-05-19T04:20:30.228Z,92.27
2023-05-19T04:23:33.576Z,91.56
2023-05-19T04:26:40.365Z,91.34
2023-05-19T04:29:42.912Z,91.08
2023-05-19T04:32:46.016Z,91.27
2023-05-19T04:35:50.941Z,90.30
2023-05-19T04:39:02.704Z,90.46
2023-05-19T04:42:06.799Z,89.87
2023-05-19T04:45:10.553Z,89.06
2023-05-19T04:48:17.093Z,87.84
2023-05-19T04:51:21.285Z,87.15
2023-05-19T04:54:24.353Z,86.89
2023-05-19T04:57:27.444Z,85.83
2023-05-19T05:00:29.916Z,86.01
2023-05-19T05:03:38.930Z,84.17
2023-05-19T05:06:42.483Z,82.38
2023-05-19T05:09:46.022Z,83.91
2023-05-19T05:12:48.922Z,81.76
2023-05-19T05:15:52.778Z,80.22
2023-05-19T05:18:56.157Z,79.37
2023-05-19T05:22:00.959Z,79.38
2023-05-19T05:25:04.162Z,76.69
2023-05-19T05:28:06.792Z,78.20
2023-05-19T05:31:12.280Z,75.29
2023-05-19T05:34:15.528Z,76.40
2023-05-19T05:37:18.826Z,75.05
2023-05-19T05:40:21.892Z,75.23
2023-05-19T05:43:24.834Z,74.05
2023-05-19T05:46:33.133Z,73.91
2023-05-19T05:49:38.455Z,75.37
2023-05-19T05:52:42.285Z,73.82
2023-05-19T05:55:46.948Z,73.17
2023-05-19T05:58:50.875Z,68.26
2023-05-19T06:01:53.783Z,65.97
2023-05-19T06:04:56.919Z,61.78
2023-05-19T06:07:59.985Z,60.20
2023-05-19T06:11:09.364Z,58.08
2023-05-19T06:14:14.826Z,55.55
2023-05-19T06:17:47.990Z,58.16
2023-05-19T06:20:50.570Z,58.94
2023-05-19T06:23:53.572Z,61.82
2023-05-19T06:26:56.235Z,61.71
2023-05-19T06:30:01.199Z,65.72
2023-05-19T06:33:07.110Z,64.62
2023-05-19T06:36:10.237Z,63.83
2023-05-19T06:39:14.575Z,63.36
2023-05-19T06:42:16.903Z,64.02
2023-05-19T06:45:33.010Z,64.46
2023-05-19T06:48:37.814Z,60.39
2023-05-19T06:51:40.360Z,61.26
2023-05-19T06:54:42.937Z,59.17
2023-05-19T06:57:46.438Z,56.87
2023-05-19T07:00:49.734Z,56.82
2023-05-19T07:03:53.238Z,59.70
2023-05-19T07:06:56.648Z,59.36
2023-05-19T07:09:59.973Z,62.91
2023-05-19T07:13:04.487Z,62.80
2023-05-19T07:16:08.754Z,62.89
2023-05-19T07:19:11.322Z,60.50
2023-05-19T07:22:13.710Z,59.56
2023-05-19T07:25:16.187Z,58.56
2023-05-19T07:28:21.582Z,52.28
2023-05-19T07:31:24.151Z,53.23
2023-05-19T07:34:26.612Z,55.17
2023-05-19T07:37:28.994Z,54.20
2023-05-19T07:40:31.893Z,50.68
2023-05-19T07:43:34.406Z,53.66
2023-05-19T07:46:38.001Z,51.65
2023-05-19T07:49:40.548Z,53.15
2023-05-19T07:52:44.214Z,54.64
2023-05-19T07:55:47.078Z,55.74
2023-05-19T07:58:49.470Z,53.00
2023-05-19T08:01:52.179Z,53.85
2023-05-19T08:04:54.577Z,54.58
2023-05-19T08:07:57.466Z,50.63
2023-05-19T08:11:04.346Z,48.46
2023-05-19T08:14:06.661Z,47.69
2023-05-19T08:17:09.025Z,49.36
2023-05-19T08:20:14.439Z,44.51
2023-05-19T08:23:18.353Z,42.26
2023-05-19T08:26:21.663Z,41.16
2023-05-19T08:29:24.262Z,42.93
2023-05-19T08:32:26.780Z,48.60
2023-05-19T08:35:29.064Z,45.82
2023-05-19T08:38:31.528Z,41.53
2023-05-19T08:41:33.851Z,45.28
2023-05-19T08:44:37.932Z,50.90
2023-05-19T08:47:49.812Z,49.94
2023-05-19T08:51:03.576Z,46.02
2023-05-19T08:54:17.919Z,47.84
2023-05-19T08:57:23.094Z,48.80
2023-05-19T09:00:25.996Z,49.06
2023-05-19T09:03:30.352Z,44.60
2023-05-19T09:06:33.066Z,47.90
2023-05-19T09:09:36.775Z,44.71
2023-05-19T09:12:39.094Z,42.12
2023-05-19T09:15:42.975Z,41.73
2023-05-19T09:18:58.593Z,44.83
2023-05-19T09:22:05.159Z,43.16
2023-05-19T09:25:19.183Z,46.45
2023-05-19T09:28:33.345Z,44.50
2023-05-19T09:31:35.774Z,47.81
2023-05-19T09:34:41.795Z,43.03
2023-05-19T09:37:44.349Z,45.64
2023-05-19T09:40:49.826Z,48.74
2023-05-19T09:43:58.571Z,48.67
2023-05-19T09:47:01.220Z,47.62
2023-05-19T09:50:05.534Z,50.18
2023-05-19T09:53:08.163Z,49.52
2023-05-19T09:56:11.095Z,50.21
2023-05-19T09:59:16.518Z,51.27
2023-05-19T10:02:25.115Z,53.67
2023-05-19T10:05:30.469Z,53.61
2023-05-19T10:08:34.777Z,48.21
2023-05-19T10:11:41.314Z,43.22
2023-05-19T10:14:44.872Z,38.77
2023-05-19T10:17:47.209Z,39.88
2023-05-19T10:20:50.298Z,45.06
2023-05-19T10:23:52.778Z,46.42
2023-05-19T10:27:03.684Z,47.80
2023-05-19T10:30:15.637Z,48.31
2023-05-19T10:33:21.094Z,48.54
2023-05-19T10:36:38.014Z,48.81
2023-05-19T10:39:42.602Z,47.62
2023-05-19T10:43:20.861Z,39.07
2023-05-19T10:46:30.365Z,37.79
2023-05-19T10:49:36.632Z,38.23
2023-05-19T10:52:40.202Z,40.51
2023-05-19T10:56:07.696Z,44.94
2023-05-19T10:59:31.176Z,46.71
2023-05-19T11:02:37.373Z,45.94
2023-05-19T11:05:39.897Z,42.73
2023-05-19T11:08:42.317Z,39.81
2023-05-19T11:11:49.070Z,37.91
2023-05-19T11:14:55.331Z,39.30
2023-05-19T11:17:57.924Z,39.50
2023-05-19T11:21:02.666Z,42.63
2023-05-19T11:24:08.921Z,41.87
2023-05-19T11:27:31.719Z,41.50
2023-05-19T11:30:34.874Z,47.21
2023-05-19T11:33:37.980Z,43.80
2023-05-19T11:36:41.384Z,47.47
2023-05-19T11:39:45.817Z,44.52
2023-05-19T11:42:48.140Z,46.00
2023-05-19T11:45:51.111Z,45.97
2023-05-19T11:48:54.109Z,48.28
2023-05-19T11:51:57.485Z,45.96
2023-05-19T11:55:04.346Z,44.20
2023-05-19T11:58:09.996Z,44.08
2023-05-19T12:01:12.553Z,47.04
2023-05-19T12:04:14.882Z,44.35
2023-05-19T12:07:19.061Z,50.35
2023-05-19T12:10:26.613Z,46.92
2023-05-19T12:13:29.351Z,49.67
2023-05-19T12:16:35.764Z,51.07
2023-05-19T12:19:38.612Z,49.32
2023-05-19T12:22:41.042Z,49.60
2023-05-19T12:25:43.463Z,50.49
2023-05-19T12:28:46.134Z,47.81
2023-05-19T12:31:49.430Z,49.36
2023-05-19T12:34:53.066Z,50.47
2023-05-19T12:37:55.537Z,51.84
2023-05-19T12:41:00.904Z,49.13
2023-05-19T12:44:14.967Z,50.43
2023-05-19T12:47:19.127Z,50.85
2023-05-19T12:50:21.551Z,50.02
2023-05-19T12:53:27.232Z,51.13
2023-05-19T12:56:29.527Z,48.54
2023-05-19T12:59:54.882Z,48.59
2023-05-19T13:03:01.450Z,49.92
2023-05-19T13:06:04.078Z,49.90
2023-05-19T13:09:07.302Z,53.21
2023-05-19T13:12:09.716Z,51.52
2023-05-19T13:15:12.080Z,50.32
2023-05-19T13:18:21.996Z,48.10
2023-05-19T13:21:25.267Z,48.76
2023-05-19T13:24:27.801Z,48.85
2023-05-19T13:27:30.068Z,51.53
2023-05-19T13:30:38.016Z,51.59
2023-05-19T13:33:40.736Z,50.90
2023-05-19T13:36:48.138Z,48.49
2023-05-19T13:39:51.577Z,48.77
2023-05-19T13:42:53.863Z,46.92
2023-05-19T13:45:56.338Z,48.04
2023-05-19T13:48:58.716Z,47.03
2023-05-19T13:52:01.025Z,51.10
2023-05-19T13:55:03.713Z,48.56
2023-05-19T13:58:06.195Z,48.37
2023-05-19T14:01:09.440Z,48.57
2023-05-19T14:04:13.342Z,50.62
2023-05-19T14:07:16.758Z,47.87
2023-05-19T14:10:19.151Z,45.85
2023-05-19T14:13:31.989Z,45.76
2023-05-19T14:16:38.344Z,44.82
2023-05-19T14:19:40.908Z,42.83
2023-05-19T14:22:43.206Z,43.83
2023-05-19T14:25:45.790Z,45.00
2023-05-19T14:28:48.043Z,46.37
2023-05-19T14:31:50.597Z,45.55
2023-05-19T14:34:53.089Z,43.50
2023-05-19T14:37:55.454Z,42.92
2023-05-19T14:40:57.790Z,43.77
2023-05-19T14:44:00.187Z,43.83
2023-05-19T14:47:02.573Z,43.84
2023-05-19T14:50:05.723Z,43.16
2023-05-19T14:53:08.005Z,45.67
2023-05-19T14:56:10.270Z,49.41
2023-05-19T14:59:12.574Z,49.97
2023-05-19T15:02:14.810Z,45.91
2023-05-19T15:05:17.395Z,44.85
2023-05-19T15:08:19.815Z,44.50
2023-05-19T15:11:22.480Z,42.97
2023-05-19T15:14:24.791Z,43.42
2023-05-19T15:17:27.065Z,45.79
2023-05-19T15:20:29.685Z,46.54
2023-05-19T15:23:32.180Z,52.06
2023-05-19T15:26:34.474Z,49.38
2023-05-19T15:29:36.855Z,50.37
2023-05-19T15:32:39.165Z,52.85
2023-05-19T15:35:41.877Z,52.14
2023-05-19T15:38:44.268Z,53.74
2023-05-19T15:41:46.562Z,53.22
2023-05-19T15:44:48.966Z,52.26
2023-05-19T15:47:51.372Z,49.76
2023-05-19T15:50:53.660Z,47.76
2023-05-19T15:53:56.056Z,52.62
2023-05-19T15:56:58.407Z,48.84
2023-05-19T16:00:01.104Z,51.95
2023-05-19T16:03:03.435Z,53.54
2023-05-19T16:06:05.948Z,54.53
2023-05-19T16:09:08.221Z,51.62
2023-05-19T16:12:10.621Z,52.93
2023-05-19T16:15:12.963Z,58.58
2023-05-19T16:18:16.082Z,58.77
2023-05-19T16:21:18.512Z,58.80
2023-05-19T16:24:21.031Z,56.56
2023-05-19T16:27:23.346Z,56.16
2023-05-19T16:30:27.942Z,58.47
2023-05-19T16:33:30.454Z,54.11
2023-05-19T16:36:32.804Z,57.44
2023-05-19T16:39:38.120Z,59.94
2023-05-19T16:42:40.962Z,60.90
2023-05-19T16:45:43.280Z,58.19
2023-05-19T16:48:45.756Z,62.88
2023-05-19T16:51:48.943Z,62.14
2023-05-19T16:54:51.435Z,62.53
2023-05-19T16:57:53.960Z,62.38
2023-05-19T17:00:57.628Z,62.71
2023-05-19T17:04:00.004Z,66.19
2023-05-19T17:07:02.405Z,64.27
2023-05-19T17:10:05.207Z,68.20
2023-05-19T17:13:07.493Z,67.03
2023-05-19T17:16:09.745Z,68.28
2023-05-19T17:19:12.523Z,66.65
2023-05-19T17:22:14.863Z,70.03
2023-05-19T17:25:17.249Z,67.05
2023-05-19T17:28:19.551Z,67.24
2023-05-19T17:31:21.857Z,68.39
2023-05-19T17:34:24.243Z,69.32
2023-05-19T17:37:26.574Z,70.51
2023-05-19T17:40:28.931Z,70.36
2023-05-19T17:43:31.204Z,71.39
2023-05-19T17:46:35.797Z,69.71
2023-05-19T17:49:40.175Z,69.40
2023-05-19T17:52:42.945Z,69.47
2023-05-19T17:55:53.417Z,69.91
2023-05-19T17:58:56.057Z,69.86
2023-05-19T18:01:58.682Z,70.12
2023-05-19T18:05:01.841Z,70.22
2023-05-19T18:08:07.187Z,72.36
2023-05-19T18:11:13.421Z,71.95
2023-05-19T18:14:15.873Z,76.92
2023-05-19T18:17:18.207Z,75.85
2023-05-19T18:20:20.577Z,76.46
2023-05-19T18:23:22.855Z,79.41
2023-05-19T18:26:25.139Z,77.61
2023-05-19T18:29:30.286Z,76.58
2023-05-19T18:32:33.944Z,76.67
2023-05-19T18:35:37.179Z,78.20
2023-05-19T18:38:40.432Z,77.34
2023-05-19T18:41:42.818Z,77.38
2023-05-19T18:44:47.151Z,77.25
2023-05-19T18:47:49.431Z,77.74
2023-05-19T18:50:51.951Z,80.33
2023-05-19T18:53:54.283Z,79.63
2023-05-19T18:56:56.612Z,79.76
2023-05-19T18:59:58.880Z,78.96
2023-05-19T19:03:01.799Z,80.46
2023-05-19T19:06:04.238Z,79.63
2023-05-19T19:09:06.568Z,79.37
2023-05-19T19:12:09.040Z,80.03
2023-05-19T19:15:11.634Z,81.02
2023-05-19T19:18:14.067Z,81.34
2023-05-19T19:21:16.421Z,82.92
2023-05-19T19:24:18.665Z,81.71
2023-05-19T19:27:21.363Z,82.33
2023-05-19T19:30:26.865Z,82.27
2023-05-19T19:33:34.364Z,82.38
2023-05-19T19:36:36.841Z,82.11
2023-05-19T19:39:39.480Z,82.70
2023-05-19T19:42:41.842Z,82.22
2023-05-19T19:45:44.195Z,82.44
2023-05-19T19:48:46.472Z,81.53
2023-05-19T19:51:48.769Z,82.75
2023-05-19T19:54:51.492Z,82.39
2023-05-19T19:57:53.820Z,83.33
2023-05-19T20:01:00.614Z,83.29
2023-05-19T20:04:03.199Z,83.47
2023-05-19T20:07:05.846Z,83.17
2023-05-19T20:10:08.667Z,83.93
2023-05-19T20:13:11.115Z,83.00
2023-05-19T20:16:13.433Z,84.25
2023-05-19T20:19:15.871Z,84.93
2023-05-19T20:22:18.280Z,85.43
2023-05-19T20:25:20.911Z,85.24
2023-05-19T20:28:24.201Z,84.55
2023-05-19T20:31:26.697Z,84.82
2023-05-19T20:34:29.055Z,84.00
2023-05-19T20:37:31.462Z,84.15
2023-05-19T20:40:37.882Z,85.06
2023-05-19T20:43:40.196Z,84.67
2023-05-19T20:46:47.420Z,86.35
2023-05-19T20:49:49.765Z,85.12
2023-05-19T20:52:52.077Z,84.98
2023-05-19T20:55:54.409Z,85.86
2023-05-19T20:58:56.773Z,86.49
2023-05-19T21:01:59.139Z,87.30
2023-05-19T21:05:01.610Z,86.42
2023-05-19T21:08:04.122Z,85.86
2023-05-19T21:11:06.512Z,84.67
2023-05-19T21:14:09.195Z,83.86
2023-05-19T21:17:11.661Z,84.00
2023-05-19T21:20:14.218Z,84.96
2023-05-19T21:23:16.581Z,85.55
2023-05-19T21:26:18.974Z,86.08
2023-05-19T21:29:21.251Z,85.75
2023-05-19T21:32:23.617Z,85.43
2023-05-19T21:35:26.071Z,85.53
2023-05-19T21:38:28.445Z,84.93
2023-05-19T21:41:31.269Z,86.42
2023-05-19T21:44:33.704Z,87.24
2023-05-19T21:47:36.195Z,88.00
2023-05-19T21:50:38.875Z,87.41
2023-05-19T21:53:41.242Z,86.88
2023-05-19T21:56:43.608Z,86.37
2023-05-19T21:59:46.324Z,85.62
2023-05-19T22:02:48.749Z,85.36
2023-05-19T22:05:53.382Z,85.64
2023-05-19T22:08:55.787Z,84.84
2023-05-19T22:11:58.112Z,85.08
2023-05-19T22:15:00.882Z,83.95
2023-05-19T22:18:03.227Z,84.26
2023-05-19T22:21:05.769Z,84.79
2023-05-19T22:24:08.053Z,84.74
2023-05-19T22:27:10.387Z,85.81
2023-05-19T22:30:12.735Z,87.37
2023-05-19T22:33:15.147Z,87.75
2023-05-19T22:36:17.635Z,88.15
2023-05-19T22:39:19.890Z,87.32
2023-05-19T22:42:22.159Z,86.04
2023-05-19T22:45:24.458Z,86.28
2023-05-19T22:48:26.777Z,86.41
2023-05-19T22:51:29.097Z,86.67
2023-05-19T22:54:32.840Z,86.26
2023-05-19T22:57:35.618Z,86.49
2023-05-19T23:00:38.004Z,85.68
2023-05-19T23:03:40.459Z,86.11
2023-05-19T23:06:42.800Z,85.66
2023-05-19T23:09:45.114Z,85.83
2023-05-19T23:12:47.432Z,86.63
2023-05-19T23:15:49.715Z,87.43
2023-05-19T23:18:52.049Z,87.35
2023-05-19T23:21:54.391Z,88.59
2023-05-19T23:24:56.784Z,87.55
2023-05-19T23:27:59.112Z,87.72
2023-05-19T23:31:01.593Z,88.34
2023-05-19T23:34:03.947Z,88.13
2023-05-19T23:37:06.361Z,88.59
2023-05-19T23:40:10.692Z,87.98
2023-05-19T23:43:13.232Z,88.03
2023-05-19T23:46:15.669Z,88.35
2023-05-19T23:49:18.068Z,88.31
2023-05-19T23:52:20.525Z,88.33
2023-05-19T23:55:23.616Z,87.11
2023-05-19T23:58:26.041Z,87.75
